PTSA/KSA METAR and TAF weather

Enter ICAO airport designator
Station Type Date Time Source
PTSA METAR 2019/02/17 05:50 UTC NOAA

PTSA 170550Z 05009KT 10SM -SHRA BKN015TCU BKN120 OVC290 26/25 A2971 RMK TCU E LAST


Station Type Date Time Source
PTSA Decoded METAR 2019/02/17 05:50 UTC NOAA

Kosrae Island, Kosrae Airport, Micronesia, Federated States of (PTSA) 05-21N 162-57E
Feb 17, 2019 - 12:50 AM EST / 2019.02.17 0550 UTC
Wind: from the NE (050 degrees) at 10 MPH (9 KT):0
Visibility: 10 mile(s):0
Sky conditions: overcast
Weather: light rain showers; Towering cumulus clouds observed
Temperature: 78 F (26 C)
Dew Point: 77 F (25 C)
Relative Humidity: 94%
Pressure (altimeter): 29.71 in. Hg (1006 hPa)
ob: PTSA 170550Z 05009KT 10SM -SHRA BKN015TCU BKN120 OVC290 26/25 A2971 RMK TCU E LAST
cycle: 6

Station Type Date Time Source
PTSA TAF 2019/02/17 06:57 UTC NOAA

TAF PTSA 170555Z 1706/1806 36014G22KT P6SM VCSH SCT014 BKN040 OVC080
TEMPO 1706/1710 5SM SHRA BKN014 OVC030


Example: see airport list